sensor_id;sensor_type;location;lat;lon;timestamp;P1;durP1;ratioP1;P2;durP2;ratioP2
66175;SDS011;52977;44.816;20.538;2024-01-27T00:00:09;16.15;;;6.70;;
66175;SDS011;52977;44.816;20.538;2024-01-27T00:02:37;16.17;;;6.28;;
66175;SDS011;52977;44.816;20.538;2024-01-27T00:05:03;18.08;;;6.40;;
66175;SDS011;52977;44.816;20.538;2024-01-27T00:07:30;16.08;;;6.35;;
66175;SDS011;52977;44.816;20.538;2024-01-27T00:09:57;14.70;;;6.18;;
66175;SDS011;52977;44.816;20.538;2024-01-27T00:12:25;13.05;;;5.35;;
66175;SDS011;52977;44.816;20.538;2024-01-27T00:14:52;11.30;;;4.88;;
66175;SDS011;52977;44.816;20.538;2024-01-27T00:17:19;10.23;;;4.45;;
66175;SDS011;52977;44.816;20.538;2024-01-27T00:19:50;9.90;;;4.78;;
66175;SDS011;52977;44.816;20.538;2024-01-27T00:22:19;13.80;;;4.45;;
66175;SDS011;52977;44.816;20.538;2024-01-27T00:24:46;14.32;;;4.93;;
66175;SDS011;52977;44.816;20.538;2024-01-27T00:27:13;10.95;;;4.68;;
66175;SDS011;52977;44.816;20.538;2024-01-27T00:29:39;14.73;;;4.47;;
66175;SDS011;52977;44.816;20.538;2024-01-27T00:32:05;14.68;;;4.53;;
66175;SDS011;52977;44.816;20.538;2024-01-27T00:34:32;13.85;;;5.97;;
66175;SDS011;52977;44.816;20.538;2024-01-27T00:36:58;14.52;;;5.60;;
66175;SDS011;52977;44.816;20.538;2024-01-27T00:39:24;15.88;;;6.05;;
66175;SDS011;52977;44.816;20.538;2024-01-27T00:41:51;15.00;;;6.35;;
66175;SDS011;52977;44.816;20.538;2024-01-27T00:44:19;13.65;;;5.50;;
66175;SDS011;52977;44.816;20.538;2024-01-27T00:46:44;15.48;;;5.68;;
66175;SDS011;52977;44.816;20.538;2024-01-27T00:49:11;11.75;;;5.07;;
66175;SDS011;52977;44.816;20.538;2024-01-27T00:51:37;15.20;;;5.70;;
66175;SDS011;52977;44.816;20.538;2024-01-27T00:54:03;12.23;;;5.43;;
66175;SDS011;52977;44.816;20.538;2024-01-27T00:56:29;13.50;;;5.10;;
66175;SDS011;52977;44.816;20.538;2024-01-27T00:58:56;18.80;;;5.95;;
66175;SDS011;52977;44.816;20.538;2024-01-27T01:01:22;16.25;;;5.72;;
66175;SDS011;52977;44.816;20.538;2024-01-27T01:03:48;19.70;;;6.07;;
66175;SDS011;52977;44.816;20.538;2024-01-27T01:06:15;16.80;;;6.60;;
66175;SDS011;52977;44.816;20.538;2024-01-27T01:08:42;20.20;;;6.45;;
66175;SDS011;52977;44.816;20.538;2024-01-27T01:11:08;15.75;;;5.63;;
66175;SDS011;52977;44.816;20.538;2024-01-27T01:13:35;14.43;;;5.40;;
66175;SDS011;52977;44.816;20.538;2024-01-27T01:16:02;16.50;;;5.50;;
66175;SDS011;52977;44.816;20.538;2024-01-27T01:18:29;14.73;;;5.28;;
66175;SDS011;52977;44.816;20.538;2024-01-27T01:20:55;16.58;;;5.93;;
66175;SDS011;52977;44.816;20.538;2024-01-27T01:23:22;19.75;;;8.10;;
66175;SDS011;52977;44.816;20.538;2024-01-27T01:25:48;19.52;;;8.05;;
66175;SDS011;52977;44.816;20.538;2024-01-27T01:28:14;23.20;;;8.35;;
66175;SDS011;52977;44.816;20.538;2024-01-27T01:30:41;20.27;;;8.00;;
66175;SDS011;52977;44.816;20.538;2024-01-27T01:33:07;20.55;;;8.45;;
66175;SDS011;52977;44.816;20.538;2024-01-27T01:35:33;24.05;;;9.85;;
66175;SDS011;52977;44.816;20.538;2024-01-27T01:37:59;24.40;;;9.88;;
66175;SDS011;52977;44.816;20.538;2024-01-27T01:40:25;22.50;;;10.55;;
66175;SDS011;52977;44.816;20.538;2024-01-27T01:42:52;26.63;;;9.82;;
66175;SDS011;52977;44.816;20.538;2024-01-27T01:45:18;23.55;;;9.13;;
66175;SDS011;52977;44.816;20.538;2024-01-27T01:47:44;21.98;;;8.40;;
66175;SDS011;52977;44.816;20.538;2024-01-27T01:50:10;17.40;;;6.93;;
66175;SDS011;52977;44.816;20.538;2024-01-27T01:52:37;20.23;;;7.72;;
66175;SDS011;52977;44.816;20.538;2024-01-27T01:55:04;17.02;;;7.78;;
66175;SDS011;52977;44.816;20.538;2024-01-27T01:57:31;20.70;;;8.10;;
66175;SDS011;52977;44.816;20.538;2024-01-27T01:59:59;23.02;;;10.60;;
66175;SDS011;52977;44.816;20.538;2024-01-27T02:02:25;37.60;;;13.55;;
66175;SDS011;52977;44.816;20.538;2024-01-27T02:04:52;28.02;;;12.77;;
66175;SDS011;52977;44.816;20.538;2024-01-27T02:07:17;29.10;;;13.90;;
66175;SDS011;52977;44.816;20.538;2024-01-27T02:09:44;34.20;;;16.42;;
66175;SDS011;52977;44.816;20.538;2024-01-27T02:12:10;39.67;;;18.10;;
66175;SDS011;52977;44.816;20.538;2024-01-27T02:14:36;43.10;;;18.98;;
66175;SDS011;52977;44.816;20.538;2024-01-27T02:17:03;42.50;;;18.27;;
66175;SDS011;52977;44.816;20.538;2024-01-27T02:19:30;43.47;;;18.17;;
66175;SDS011;52977;44.816;20.538;2024-01-27T02:21:56;43.30;;;18.20;;
66175;SDS011;52977;44.816;20.538;2024-01-27T02:24:23;44.05;;;17.83;;
66175;SDS011;52977;44.816;20.538;2024-01-27T02:26:49;41.05;;;17.40;;
66175;SDS011;52977;44.816;20.538;2024-01-27T02:29:15;43.17;;;17.30;;
66175;SDS011;52977;44.816;20.538;2024-01-27T02:31:41;36.42;;;16.60;;
66175;SDS011;52977;44.816;20.538;2024-01-27T02:34:08;39.53;;;15.02;;
66175;SDS011;52977;44.816;20.538;2024-01-27T02:36:34;41.10;;;14.63;;
66175;SDS011;52977;44.816;20.538;2024-01-27T02:39:00;36.83;;;13.77;;
66175;SDS011;52977;44.816;20.538;2024-01-27T02:41:27;35.67;;;13.80;;
66175;SDS011;52977;44.816;20.538;2024-01-27T02:43:53;35.33;;;14.05;;
66175;SDS011;52977;44.816;20.538;2024-01-27T02:46:19;39.70;;;11.70;;
66175;SDS011;52977;44.816;20.538;2024-01-27T02:48:45;28.30;;;11.43;;
66175;SDS011;52977;44.816;20.538;2024-01-27T02:51:12;25.40;;;10.20;;
66175;SDS011;52977;44.816;20.538;2024-01-27T02:53:38;22.75;;;9.20;;
66175;SDS011;52977;44.816;20.538;2024-01-27T02:56:08;28.20;;;9.18;;
66175;SDS011;52977;44.816;20.538;2024-01-27T02:58:34;20.20;;;7.80;;
66175;SDS011;52977;44.816;20.538;2024-01-27T03:01:00;18.38;;;7.10;;
66175;SDS011;52977;44.816;20.538;2024-01-27T03:03:27;13.65;;;5.78;;
66175;SDS011;52977;44.816;20.538;2024-01-27T03:05:54;17.88;;;5.65;;
66175;SDS011;52977;44.816;20.538;2024-01-27T03:08:20;19.38;;;6.95;;
66175;SDS011;52977;44.816;20.538;2024-01-27T03:10:47;16.60;;;6.78;;
66175;SDS011;52977;44.816;20.538;2024-01-27T03:13:13;11.82;;;5.18;;
66175;SDS011;52977;44.816;20.538;2024-01-27T03:15:39;11.38;;;5.15;;
66175;SDS011;52977;44.816;20.538;2024-01-27T03:18:08;13.07;;;5.72;;
66175;SDS011;52977;44.816;20.538;2024-01-27T03:20:34;10.50;;;5.35;;
66175;SDS011;52977;44.816;20.538;2024-01-27T03:23:01;13.35;;;5.40;;
66175;SDS011;52977;44.816;20.538;2024-01-27T03:25:27;11.95;;;4.55;;
66175;SDS011;52977;44.816;20.538;2024-01-27T03:27:53;14.77;;;5.68;;
66175;SDS011;52977;44.816;20.538;2024-01-27T03:30:20;13.23;;;5.10;;
66175;SDS011;52977;44.816;20.538;2024-01-27T03:32:46;14.63;;;5.07;;
66175;SDS011;52977;44.816;20.538;2024-01-27T03:35:12;10.85;;;4.32;;
66175;SDS011;52977;44.816;20.538;2024-01-27T03:37:38;12.93;;;5.10;;
66175;SDS011;52977;44.816;20.538;2024-01-27T03:40:04;12.93;;;4.47;;
66175;SDS011;52977;44.816;20.538;2024-01-27T03:42:31;15.45;;;4.70;;
66175;SDS011;52977;44.816;20.538;2024-01-27T03:44:57;11.50;;;4.43;;
66175;SDS011;52977;44.816;20.538;2024-01-27T03:47:23;15.13;;;5.82;;
66175;SDS011;52977;44.816;20.538;2024-01-27T03:49:49;11.95;;;5.30;;
66175;SDS011;52977;44.816;20.538;2024-01-27T03:52:16;15.43;;;6.10;;
66175;SDS011;52977;44.816;20.538;2024-01-27T03:54:42;18.15;;;7.07;;
66175;SDS011;52977;44.816;20.538;2024-01-27T03:57:07;19.45;;;6.88;;
66175;SDS011;52977;44.816;20.538;2024-01-27T03:59:34;15.38;;;6.38;;
66175;SDS011;52977;44.816;20.538;2024-01-27T04:02:00;17.70;;;6.50;;
66175;SDS011;52977;44.816;20.538;2024-01-27T04:04:26;16.80;;;6.45;;
66175;SDS011;52977;44.816;20.538;2024-01-27T04:06:53;18.17;;;6.72;;
66175;SDS011;52977;44.816;20.538;2024-01-27T04:09:19;17.88;;;6.53;;
66175;SDS011;52977;44.816;20.538;2024-01-27T04:11:45;13.88;;;5.97;;
66175;SDS011;52977;44.816;20.538;2024-01-27T04:14:12;10.73;;;5.40;;
66175;SDS011;52977;44.816;20.538;2024-01-27T04:16:37;13.48;;;4.55;;
66175;SDS011;52977;44.816;20.538;2024-01-27T04:19:04;6.13;;;2.75;;
66175;SDS011;52977;44.816;20.538;2024-01-27T04:21:30;6.60;;;2.47;;
66175;SDS011;52977;44.816;20.538;2024-01-27T04:23:56;7.70;;;1.90;;
66175;SDS011;52977;44.816;20.538;2024-01-27T04:26:23;6.85;;;1.98;;
66175;SDS011;52977;44.816;20.538;2024-01-27T04:28:49;12.43;;;2.13;;
66175;SDS011;52977;44.816;20.538;2024-01-27T04:31:15;6.03;;;2.20;;
66175;SDS011;52977;44.816;20.538;2024-01-27T04:33:42;6.43;;;1.80;;
66175;SDS011;52977;44.816;20.538;2024-01-27T04:36:08;7.65;;;1.95;;
66175;SDS011;52977;44.816;20.538;2024-01-27T04:38:36;5.18;;;1.90;;
66175;SDS011;52977;44.816;20.538;2024-01-27T04:41:02;4.07;;;1.75;;
66175;SDS011;52977;44.816;20.538;2024-01-27T04:43:28;3.78;;;1.67;;
66175;SDS011;52977;44.816;20.538;2024-01-27T04:45:55;3.97;;;1.40;;
66175;SDS011;52977;44.816;20.538;2024-01-27T04:48:21;4.05;;;1.50;;
66175;SDS011;52977;44.816;20.538;2024-01-27T04:50:47;3.70;;;1.67;;
66175;SDS011;52977;44.816;20.538;2024-01-27T04:53:14;4.70;;;1.80;;
66175;SDS011;52977;44.816;20.538;2024-01-27T04:55:41;4.63;;;1.50;;
66175;SDS011;52977;44.816;20.538;2024-01-27T04:58:07;5.28;;;1.88;;
66175;SDS011;52977;44.816;20.538;2024-01-27T05:00:33;4.57;;;1.42;;
66175;SDS011;52977;44.816;20.538;2024-01-27T05:03:00;9.50;;;1.50;;
66175;SDS011;52977;44.816;20.538;2024-01-27T05:05:30;2.30;;;1.00;;
66175;SDS011;52977;44.816;20.538;2024-01-27T05:07:56;3.80;;;1.10;;
66175;SDS011;52977;44.816;20.538;2024-01-27T05:10:22;4.78;;;1.35;;
66175;SDS011;52977;44.816;20.538;2024-01-27T05:12:51;4.70;;;1.20;;
66175;SDS011;52977;44.816;20.538;2024-01-27T05:15:17;6.80;;;1.48;;
66175;SDS011;52977;44.816;20.538;2024-01-27T05:17:43;3.17;;;1.15;;
66175;SDS011;52977;44.816;20.538;2024-01-27T05:20:10;3.30;;;1.10;;
66175;SDS011;52977;44.816;20.538;2024-01-27T05:22:36;2.85;;;1.20;;
66175;SDS011;52977;44.816;20.538;2024-01-27T05:25:03;4.22;;;1.02;;
66175;SDS011;52977;44.816;20.538;2024-01-27T05:27:29;2.85;;;1.00;;
66175;SDS011;52977;44.816;20.538;2024-01-27T05:29:56;2.45;;;1.10;;
66175;SDS011;52977;44.816;20.538;2024-01-27T05:32:22;3.67;;;0.98;;
66175;SDS011;52977;44.816;20.538;2024-01-27T05:34:48;1.52;;;0.88;;
66175;SDS011;52977;44.816;20.538;2024-01-27T05:37:15;3.20;;;1.10;;
66175;SDS011;52977;44.816;20.538;2024-01-27T05:39:41;3.80;;;1.00;;
66175;SDS011;52977;44.816;20.538;2024-01-27T05:42:07;3.75;;;0.90;;
66175;SDS011;52977;44.816;20.538;2024-01-27T05:44:33;2.40;;;1.05;;
66175;SDS011;52977;44.816;20.538;2024-01-27T05:47:00;4.43;;;0.90;;
66175;SDS011;52977;44.816;20.538;2024-01-27T05:49:26;2.65;;;0.80;;
66175;SDS011;52977;44.816;20.538;2024-01-27T05:51:52;1.73;;;0.90;;
66175;SDS011;52977;44.816;20.538;2024-01-27T05:54:19;3.08;;;0.98;;
66175;SDS011;52977;44.816;20.538;2024-01-27T05:56:45;2.20;;;0.88;;
66175;SDS011;52977;44.816;20.538;2024-01-27T05:59:11;2.47;;;1.05;;
66175;SDS011;52977;44.816;20.538;2024-01-27T06:01:37;5.55;;;0.98;;
66175;SDS011;52977;44.816;20.538;2024-01-27T06:04:06;1.90;;;0.80;;
66175;SDS011;52977;44.816;20.538;2024-01-27T06:06:33;2.47;;;0.80;;
66175;SDS011;52977;44.816;20.538;2024-01-27T06:09:00;3.63;;;0.90;;
66175;SDS011;52977;44.816;20.538;2024-01-27T06:11:27;3.20;;;1.20;;
66175;SDS011;52977;44.816;20.538;2024-01-27T06:13:53;2.40;;;0.90;;
66175;SDS011;52977;44.816;20.538;2024-01-27T06:16:19;1.85;;;0.88;;
66175;SDS011;52977;44.816;20.538;2024-01-27T06:18:46;2.28;;;0.90;;
66175;SDS011;52977;44.816;20.538;2024-01-27T06:21:12;3.00;;;0.63;;
66175;SDS011;52977;44.816;20.538;2024-01-27T06:23:39;2.20;;;0.90;;
66175;SDS011;52977;44.816;20.538;2024-01-27T06:26:08;4.97;;;1.08;;
66175;SDS011;52977;44.816;20.538;2024-01-27T06:28:35;2.20;;;0.90;;
66175;SDS011;52977;44.816;20.538;2024-01-27T06:31:05;5.57;;;0.95;;
66175;SDS011;52977;44.816;20.538;2024-01-27T06:33:34;2.58;;;1.00;;
66175;SDS011;52977;44.816;20.538;2024-01-27T06:36:01;2.88;;;1.00;;
66175;SDS011;52977;44.816;20.538;2024-01-27T06:38:28;2.25;;;0.90;;
66175;SDS011;52977;44.816;20.538;2024-01-27T06:40:54;1.65;;;0.90;;
66175;SDS011;52977;44.816;20.538;2024-01-27T06:43:20;3.13;;;1.02;;
66175;SDS011;52977;44.816;20.538;2024-01-27T06:45:47;1.83;;;0.90;;
66175;SDS011;52977;44.816;20.538;2024-01-27T06:48:13;4.03;;;0.88;;
66175;SDS011;52977;44.816;20.538;2024-01-27T06:50:40;3.00;;;1.05;;
66175;SDS011;52977;44.816;20.538;2024-01-27T06:53:06;3.30;;;1.08;;
66175;SDS011;52977;44.816;20.538;2024-01-27T06:55:33;2.85;;;1.10;;
66175;SDS011;52977;44.816;20.538;2024-01-27T06:57:59;3.20;;;0.80;;
66175;SDS011;52977;44.816;20.538;2024-01-27T07:00:25;2.42;;;0.75;;
66175;SDS011;52977;44.816;20.538;2024-01-27T07:02:51;1.98;;;0.90;;
66175;SDS011;52977;44.816;20.538;2024-01-27T07:05:18;2.28;;;0.90;;
66175;SDS011;52977;44.816;20.538;2024-01-27T07:07:44;2.03;;;0.93;;
66175;SDS011;52977;44.816;20.538;2024-01-27T07:10:10;2.58;;;1.10;;
66175;SDS011;52977;44.816;20.538;2024-01-27T07:12:37;3.45;;;1.40;;
66175;SDS011;52977;44.816;20.538;2024-01-27T07:15:03;2.53;;;1.10;;
66175;SDS011;52977;44.816;20.538;2024-01-27T07:17:30;6.35;;;1.38;;
66175;SDS011;52977;44.816;20.538;2024-01-27T07:19:56;3.30;;;1.23;;
66175;SDS011;52977;44.816;20.538;2024-01-27T07:22:23;6.20;;;1.65;;
66175;SDS011;52977;44.816;20.538;2024-01-27T07:24:49;2.70;;;1.17;;
66175;SDS011;52977;44.816;20.538;2024-01-27T07:27:17;5.07;;;1.17;;
66175;SDS011;52977;44.816;20.538;2024-01-27T07:29:44;2.67;;;1.10;;
66175;SDS011;52977;44.816;20.538;2024-01-27T07:32:11;2.58;;;1.10;;
66175;SDS011;52977;44.816;20.538;2024-01-27T07:34:42;6.85;;;1.38;;
66175;SDS011;52977;44.816;20.538;2024-01-27T07:37:09;4.35;;;1.60;;
66175;SDS011;52977;44.816;20.538;2024-01-27T07:39:35;4.05;;;0.95;;
66175;SDS011;52977;44.816;20.538;2024-01-27T07:42:02;3.20;;;1.20;;
66175;SDS011;52977;44.816;20.538;2024-01-27T07:44:28;4.38;;;1.45;;
66175;SDS011;52977;44.816;20.538;2024-01-27T07:46:54;6.47;;;1.08;;
66175;SDS011;52977;44.816;20.538;2024-01-27T07:49:21;2.47;;;1.25;;
66175;SDS011;52977;44.816;20.538;2024-01-27T07:51:47;5.00;;;1.52;;
66175;SDS011;52977;44.816;20.538;2024-01-27T07:54:14;3.35;;;1.30;;
66175;SDS011;52977;44.816;20.538;2024-01-27T07:56:40;3.45;;;1.23;;
66175;SDS011;52977;44.816;20.538;2024-01-27T07:59:07;4.18;;;1.30;;
66175;SDS011;52977;44.816;20.538;2024-01-27T08:01:40;3.63;;;1.33;;
66175;SDS011;52977;44.816;20.538;2024-01-27T08:04:06;2.90;;;1.05;;
66175;SDS011;52977;44.816;20.538;2024-01-27T08:06:33;3.47;;;1.40;;
66175;SDS011;52977;44.816;20.538;2024-01-27T08:08:59;6.78;;;1.70;;
66175;SDS011;52977;44.816;20.538;2024-01-27T08:11:26;2.80;;;1.20;;
66175;SDS011;52977;44.816;20.538;2024-01-27T08:13:52;3.00;;;1.50;;
66175;SDS011;52977;44.816;20.538;2024-01-27T08:16:19;3.38;;;1.15;;
66175;SDS011;52977;44.816;20.538;2024-01-27T08:18:46;6.50;;;1.60;;
66175;SDS011;52977;44.816;20.538;2024-01-27T08:21:12;4.15;;;1.00;;
66175;SDS011;52977;44.816;20.538;2024-01-27T08:23:38;5.85;;;1.67;;
66175;SDS011;52977;44.816;20.538;2024-01-27T08:26:05;3.33;;;1.25;;
66175;SDS011;52977;44.816;20.538;2024-01-27T08:28:31;6.55;;;1.65;;
66175;SDS011;52977;44.816;20.538;2024-01-27T08:30:58;5.22;;;1.40;;
66175;SDS011;52977;44.816;20.538;2024-01-27T08:33:25;4.50;;;1.38;;
66175;SDS011;52977;44.816;20.538;2024-01-27T08:35:52;2.28;;;1.00;;
66175;SDS011;52977;44.816;20.538;2024-01-27T08:38:18;4.25;;;1.20;;
66175;SDS011;52977;44.816;20.538;2024-01-27T08:40:44;4.38;;;1.20;;
66175;SDS011;52977;44.816;20.538;2024-01-27T08:43:10;3.05;;;1.25;;
66175;SDS011;52977;44.816;20.538;2024-01-27T08:45:39;4.78;;;1.13;;
66175;SDS011;52977;44.816;20.538;2024-01-27T08:48:06;5.25;;;1.50;;
66175;SDS011;52977;44.816;20.538;2024-01-27T08:50:33;4.68;;;1.35;;
66175;SDS011;52977;44.816;20.538;2024-01-27T08:52:59;7.50;;;1.48;;
66175;SDS011;52977;44.816;20.538;2024-01-27T08:55:25;3.10;;;1.23;;
66175;SDS011;52977;44.816;20.538;2024-01-27T08:57:52;4.13;;;1.10;;
66175;SDS011;52977;44.816;20.538;2024-01-27T09:00:18;5.97;;;1.00;;
66175;SDS011;52977;44.816;20.538;2024-01-27T09:02:45;7.00;;;1.92;;
66175;SDS011;52977;44.816;20.538;2024-01-27T09:05:11;4.47;;;1.30;;
66175;SDS011;52977;44.816;20.538;2024-01-27T09:07:38;10.30;;;1.77;;
66175;SDS011;52977;44.816;20.538;2024-01-27T09:10:04;5.57;;;1.20;;
66175;SDS011;52977;44.816;20.538;2024-01-27T09:12:31;5.95;;;1.40;;
66175;SDS011;52977;44.816;20.538;2024-01-27T09:14:57;2.90;;;1.17;;
66175;SDS011;52977;44.816;20.538;2024-01-27T09:17:23;3.55;;;0.88;;
66175;SDS011;52977;44.816;20.538;2024-01-27T09:19:50;3.10;;;1.00;;
66175;SDS011;52977;44.816;20.538;2024-01-27T09:22:17;5.40;;;1.48;;
66175;SDS011;52977;44.816;20.538;2024-01-27T09:24:43;7.75;;;1.35;;
66175;SDS011;52977;44.816;20.538;2024-01-27T09:27:08;2.85;;;0.95;;
66175;SDS011;52977;44.816;20.538;2024-01-27T09:29:35;4.35;;;2.00;;
66175;SDS011;52977;44.816;20.538;2024-01-27T09:32:01;6.03;;;1.05;;
66175;SDS011;52977;44.816;20.538;2024-01-27T09:34:27;5.88;;;1.75;;
66175;SDS011;52977;44.816;20.538;2024-01-27T09:36:54;3.53;;;1.08;;
66175;SDS011;52977;44.816;20.538;2024-01-27T09:39:20;2.20;;;0.90;;
66175;SDS011;52977;44.816;20.538;2024-01-27T09:41:47;2.22;;;1.00;;
66175;SDS011;52977;44.816;20.538;2024-01-27T09:44:14;6.53;;;1.73;;
66175;SDS011;52977;44.816;20.538;2024-01-27T09:46:45;5.03;;;1.20;;
66175;SDS011;52977;44.816;20.538;2024-01-27T09:49:13;4.13;;;1.30;;
66175;SDS011;52977;44.816;20.538;2024-01-27T09:51:42;6.57;;;1.42;;
66175;SDS011;52977;44.816;20.538;2024-01-27T09:54:09;4.00;;;1.48;;
66175;SDS011;52977;44.816;20.538;2024-01-27T09:56:35;2.35;;;0.82;;
66175;SDS011;52977;44.816;20.538;2024-01-27T09:59:02;4.75;;;1.40;;
66175;SDS011;52977;44.816;20.538;2024-01-27T10:01:29;4.20;;;1.35;;
66175;SDS011;52977;44.816;20.538;2024-01-27T10:03:55;6.63;;;1.27;;
66175;SDS011;52977;44.816;20.538;2024-01-27T10:06:24;3.30;;;1.48;;
66175;SDS011;52977;44.816;20.538;2024-01-27T10:08:51;4.03;;;1.52;;
66175;SDS011;52977;44.816;20.538;2024-01-27T10:11:20;2.45;;;1.05;;
66175;SDS011;52977;44.816;20.538;2024-01-27T10:13:57;3.50;;;1.40;;
66175;SDS011;52977;44.816;20.538;2024-01-27T10:16:27;5.20;;;1.63;;
66175;SDS011;52977;44.816;20.538;2024-01-27T10:19:00;4.47;;;1.33;;
66175;SDS011;52977;44.816;20.538;2024-01-27T10:21:27;4.68;;;1.40;;
66175;SDS011;52977;44.816;20.538;2024-01-27T10:23:54;3.38;;;1.05;;
66175;SDS011;52977;44.816;20.538;2024-01-27T10:26:20;3.95;;;1.20;;
66175;SDS011;52977;44.816;20.538;2024-01-27T10:28:54;5.57;;;1.40;;
66175;SDS011;52977;44.816;20.538;2024-01-27T10:31:25;5.00;;;1.27;;
66175;SDS011;52977;44.816;20.538;2024-01-27T10:33:53;4.25;;;1.50;;
66175;SDS011;52977;44.816;20.538;2024-01-27T10:36:20;4.57;;;1.40;;
66175;SDS011;52977;44.816;20.538;2024-01-27T10:38:46;4.43;;;1.15;;
66175;SDS011;52977;44.816;20.538;2024-01-27T10:41:14;2.63;;;0.63;;
66175;SDS011;52977;44.816;20.538;2024-01-27T10:43:53;3.58;;;1.20;;
66175;SDS011;52977;44.816;20.538;2024-01-27T10:46:20;3.15;;;1.20;;
66175;SDS011;52977;44.816;20.538;2024-01-27T10:48:49;3.40;;;1.60;;
66175;SDS011;52977;44.816;20.538;2024-01-27T10:51:23;6.10;;;1.48;;
66175;SDS011;52977;44.816;20.538;2024-01-27T10:54:02;3.20;;;1.20;;
66175;SDS011;52977;44.816;20.538;2024-01-27T10:56:29;6.63;;;1.92;;
66175;SDS011;52977;44.816;20.538;2024-01-27T10:58:57;4.05;;;1.35;;
66175;SDS011;52977;44.816;20.538;2024-01-27T11:01:25;4.35;;;1.25;;
66175;SDS011;52977;44.816;20.538;2024-01-27T11:03:54;2.97;;;0.90;;
66175;SDS011;52977;44.816;20.538;2024-01-27T11:06:22;3.67;;;1.15;;
66175;SDS011;52977;44.816;20.538;2024-01-27T11:08:49;2.88;;;1.00;;
66175;SDS011;52977;44.816;20.538;2024-01-27T11:11:16;3.08;;;1.48;;
66175;SDS011;52977;44.816;20.538;2024-01-27T11:13:44;1.73;;;0.73;;
66175;SDS011;52977;44.816;20.538;2024-01-27T11:16:16;5.07;;;1.63;;
66175;SDS011;52977;44.816;20.538;2024-01-27T11:18:44;5.37;;;1.47;;
66175;SDS011;52977;44.816;20.538;2024-01-27T11:21:13;6.50;;;1.60;;
66175;SDS011;52977;44.816;20.538;2024-01-27T11:23:41;7.80;;;1.70;;
66175;SDS011;52977;44.816;20.538;2024-01-27T11:26:09;3.60;;;1.58;;
66175;SDS011;52977;44.816;20.538;2024-01-27T11:28:37;4.93;;;1.45;;
66175;SDS011;52977;44.816;20.538;2024-01-27T11:31:04;5.70;;;1.65;;
66175;SDS011;52977;44.816;20.538;2024-01-27T11:33:32;4.60;;;1.23;;
66175;SDS011;52977;44.816;20.538;2024-01-27T11:36:05;3.35;;;0.85;;
66175;SDS011;52977;44.816;20.538;2024-01-27T11:38:32;2.67;;;1.10;;
66175;SDS011;52977;44.816;20.538;2024-01-27T11:41:01;2.92;;;1.05;;
66175;SDS011;52977;44.816;20.538;2024-01-27T11:43:28;3.15;;;1.25;;
66175;SDS011;52977;44.816;20.538;2024-01-27T11:45:58;8.98;;;1.50;;
66175;SDS011;52977;44.816;20.538;2024-01-27T11:48:25;3.45;;;1.40;;
66175;SDS011;52977;44.816;20.538;2024-01-27T11:51:09;3.15;;;1.25;;
66175;SDS011;52977;44.816;20.538;2024-01-27T11:53:37;4.40;;;1.30;;
66175;SDS011;52977;44.816;20.538;2024-01-27T11:56:04;6.03;;;1.67;;
66175;SDS011;52977;44.816;20.538;2024-01-27T11:58:31;3.90;;;1.40;;
66175;SDS011;52977;44.816;20.538;2024-01-27T12:00:58;6.72;;;1.60;;
66175;SDS011;52977;44.816;20.538;2024-01-27T12:03:24;3.92;;;1.65;;
66175;SDS011;52977;44.816;20.538;2024-01-27T12:05:52;3.65;;;1.70;;
66175;SDS011;52977;44.816;20.538;2024-01-27T12:08:18;5.32;;;2.03;;
66175;SDS011;52977;44.816;20.538;2024-01-27T12:10:45;5.40;;;1.45;;
66175;SDS011;52977;44.816;20.538;2024-01-27T12:13:11;6.30;;;1.30;;
66175;SDS011;52977;44.816;20.538;2024-01-27T12:15:38;3.30;;;1.13;;
66175;SDS011;52977;44.816;20.538;2024-01-27T12:18:04;5.80;;;0.90;;
66175;SDS011;52977;44.816;20.538;2024-01-27T12:20:31;4.78;;;1.00;;
66175;SDS011;52977;44.816;20.538;2024-01-27T12:23:04;4.45;;;1.15;;
66175;SDS011;52977;44.816;20.538;2024-01-27T12:25:34;3.92;;;1.17;;
66175;SDS011;52977;44.816;20.538;2024-01-27T12:28:03;5.63;;;1.50;;
66175;SDS011;52977;44.816;20.538;2024-01-27T12:30:31;4.57;;;1.52;;
66175;SDS011;52977;44.816;20.538;2024-01-27T12:32:58;4.85;;;1.50;;
66175;SDS011;52977;44.816;20.538;2024-01-27T12:35:24;4.05;;;1.73;;
66175;SDS011;52977;44.816;20.538;2024-01-27T12:37:51;2.88;;;1.10;;
66175;SDS011;52977;44.816;20.538;2024-01-27T12:40:19;3.13;;;1.10;;
66175;SDS011;52977;44.816;20.538;2024-01-27T12:42:47;2.63;;;1.02;;
66175;SDS011;52977;44.816;20.538;2024-01-27T12:45:14;4.57;;;1.50;;
66175;SDS011;52977;44.816;20.538;2024-01-27T12:47:41;3.58;;;1.23;;
66175;SDS011;52977;44.816;20.538;2024-01-27T12:50:07;4.45;;;1.20;;
66175;SDS011;52977;44.816;20.538;2024-01-27T12:52:34;4.80;;;1.33;;
66175;SDS011;52977;44.816;20.538;2024-01-27T12:55:00;1.75;;;0.93;;
66175;SDS011;52977;44.816;20.538;2024-01-27T12:57:26;4.85;;;1.17;;
66175;SDS011;52977;44.816;20.538;2024-01-27T12:59:52;3.95;;;1.40;;
66175;SDS011;52977;44.816;20.538;2024-01-27T13:02:19;3.85;;;1.70;;
66175;SDS011;52977;44.816;20.538;2024-01-27T13:04:45;4.43;;;1.80;;
66175;SDS011;52977;44.816;20.538;2024-01-27T13:07:12;5.85;;;1.75;;
66175;SDS011;52977;44.816;20.538;2024-01-27T13:09:40;5.80;;;1.35;;
66175;SDS011;52977;44.816;20.538;2024-01-27T13:12:06;3.40;;;1.35;;
66175;SDS011;52977;44.816;20.538;2024-01-27T13:14:32;4.78;;;1.50;;
66175;SDS011;52977;44.816;20.538;2024-01-27T13:16:59;3.20;;;1.20;;
66175;SDS011;52977;44.816;20.538;2024-01-27T13:19:26;5.25;;;1.45;;
66175;SDS011;52977;44.816;20.538;2024-01-27T13:21:53;4.15;;;1.13;;
66175;SDS011;52977;44.816;20.538;2024-01-27T13:24:19;6.97;;;1.58;;
66175;SDS011;52977;44.816;20.538;2024-01-27T13:26:48;6.18;;;1.55;;
66175;SDS011;52977;44.816;20.538;2024-01-27T13:29:14;4.20;;;1.67;;
66175;SDS011;52977;44.816;20.538;2024-01-27T13:31:41;3.90;;;1.30;;
66175;SDS011;52977;44.816;20.538;2024-01-27T13:34:07;4.93;;;1.35;;
66175;SDS011;52977;44.816;20.538;2024-01-27T13:36:33;5.50;;;2.03;;
66175;SDS011;52977;44.816;20.538;2024-01-27T13:39:00;3.05;;;1.40;;
66175;SDS011;52977;44.816;20.538;2024-01-27T13:41:26;4.82;;;2.17;;
66175;SDS011;52977;44.816;20.538;2024-01-27T13:43:52;7.30;;;1.52;;
66175;SDS011;52977;44.816;20.538;2024-01-27T13:46:19;5.68;;;1.70;;
66175;SDS011;52977;44.816;20.538;2024-01-27T13:48:45;5.28;;;1.63;;
66175;SDS011;52977;44.816;20.538;2024-01-27T13:51:12;4.38;;;1.48;;
66175;SDS011;52977;44.816;20.538;2024-01-27T13:53:38;5.57;;;1.48;;
66175;SDS011;52977;44.816;20.538;2024-01-27T13:56:05;6.35;;;1.50;;
66175;SDS011;52977;44.816;20.538;2024-01-27T13:58:32;4.57;;;2.05;;
66175;SDS011;52977;44.816;20.538;2024-01-27T14:00:58;6.10;;;1.55;;
66175;SDS011;52977;44.816;20.538;2024-01-27T14:03:25;5.15;;;1.50;;
66175;SDS011;52977;44.816;20.538;2024-01-27T14:05:52;6.35;;;1.65;;
66175;SDS011;52977;44.816;20.538;2024-01-27T14:08:18;4.47;;;1.55;;
66175;SDS011;52977;44.816;20.538;2024-01-27T14:10:45;7.05;;;2.05;;
66175;SDS011;52977;44.816;20.538;2024-01-27T14:13:14;4.72;;;1.63;;
66175;SDS011;52977;44.816;20.538;2024-01-27T14:15:40;7.78;;;1.80;;
66175;SDS011;52977;44.816;20.538;2024-01-27T14:18:06;4.82;;;1.70;;
66175;SDS011;52977;44.816;20.538;2024-01-27T14:20:35;5.93;;;1.88;;
66175;SDS011;52977;44.816;20.538;2024-01-27T14:23:03;5.15;;;1.92;;
66175;SDS011;52977;44.816;20.538;2024-01-27T14:25:29;3.83;;;1.50;;
66175;SDS011;52977;44.816;20.538;2024-01-27T14:27:55;9.52;;;2.08;;